Aérodrome :
LOGIN :

S'inscrire | Disclaimer

   EN    FR    IT 

 










Légende :    VFR   VFR Marginal   IFR   IFR Intensif   IFR Très Intensif
Visi : 
Plafond : 
>= 8 km
>= 3000ft
5 à 8 km
1000 à 3000 ft
1500m à 5 km
500 à 1000 ft
800 à 1500m
200 à 500 ft
< 800m
< 200 ft
Symboles :   Orages  Brouillard  Fortes neiges  Fortes précipitations  Vent > 20 kt
SIGMETs :   Divers  Orages  Givrage  Turbulence  Onde Orograph.  Cendres Volcan.






- Altitude de l'aérodrome : 231 ft
- Code IATA : WTN


EGXW - RAF Waddington

DERNIER METAR :
  • 221220Z 15011KT 9999 BKN009 08/06 Q0996 TEMPO FEW009 RMK GRN TEMPO BLU

METARs EXPIRÉS :
  • 221150Z 15011KT 9999 BKN009 08/06 Q0996 TEMPO FEW010 RMK GRN TEMPO BLU
  • 221120Z 15012KT 9999 BKN009 08/07 Q0996 TEMPO FEW010 RMK GRN TEMPO BLU
  • 221050Z 14011KT 9999 BKN008 07/06 Q0996 TEMPO FEW008 RMK GRN TEMPO BLU
  • 221021Z 14012KT 9999 FEW008 SCT015 BKN040 06/06 Q0996 TEMPO SCT008 RMK WHT TEMPO GRN
  • 220950Z 14012KT 9999 -RA FEW007 BKN045 06/06 Q0996 TEMPO SCT007 RMK BLU TEMPO GRN
  • 220922Z 14010KT 9999 FEW006 BKN030 06/06 Q0996 TEMPO SCT007 RMK BLU TEMPO GRN

TAF TAF EGXW
Valide du 22 à 12h jusqu'au 23 à 06h UTC


221046Z 2212/2306 14012KT 9999 BKN030
TEMPO 2212/2216 SCT015
PROB30
TEMPO 2212/2214 SCT012
TEMPO 2216/2218 5000 RA BKN012
PROB30
TEMPO 2218/2303 SCT010
PROB30
TEMPO 2303/2306 4000 RA SCT005



MET'MAP, la Météo Aéronautique d'un coup d'oeil ! - Copyright ORBIFLY Décembre 2007 - Disclaimer

ORBIFLY MET'MAP TEAM :

Programmation & Développement : Alexandra Zaïnal
Conception & Développement : Baudouin d'Aumeries
Co-Programmation & Développement : Marc-Olivier Méhu
Soutien technique & logistique : Manuel Goepfert

Contact : metmap@orbifly.com




SOURCES & CREDITS :

   NOAA